Terminal Aerodrome Forecast
Issued by NWS Sioux Falls, SD

Home | Current Version | Previous Version | Text Only | Print | Product List | Glossary On
Versions: 1 2 3 4 5 6 7 8 9 10 11 12
000
FTUS43 KFSD 261733
TAFFSD
TAF
KFSD 261733Z 2618/2718 30011KT P6SM SCT200
     FM270000 30007KT P6SM SKC
     FM271000 VRB03KT P6SM BKN100
     FM271600 35006KT P6SM VCSH OVC070=

USA.gov is the U.S. government's official web portal to all federal, state and local government web resources and services.